createdAt,value
2022-12-18T00:00:49.981Z,53.13
2022-12-18T00:03:16.504Z,47.10
2022-12-18T00:05:49.905Z,43.90
2022-12-18T00:08:17.904Z,46.50
2022-12-18T00:10:44.362Z,40.43
2022-12-18T00:13:11.420Z,38.30
2022-12-18T00:15:38.800Z,39.30
2022-12-18T00:18:05.419Z,40.37
2022-12-18T00:20:31.964Z,42.80
2022-12-18T00:22:58.365Z,35.50
2022-12-18T00:25:24.889Z,36.20
2022-12-18T00:27:51.322Z,43.80
2022-12-18T00:30:18.065Z,29.17
2022-12-18T00:32:44.597Z,27.83
2022-12-18T00:35:10.971Z,37.63
2022-12-18T00:37:37.526Z,38.43
2022-12-18T00:40:04.219Z,36.43
2022-12-18T00:42:49.185Z,33.80
2022-12-18T00:45:15.622Z,30.87
2022-12-18T00:47:42.067Z,28.63
2022-12-18T00:50:08.770Z,27.80
2022-12-18T00:52:35.197Z,35.20
2022-12-18T00:55:05.965Z,35.03
2022-12-18T00:57:33.000Z,22.80
2022-12-18T00:59:59.507Z,27.80
2022-12-18T01:02:26.009Z,34.17
2022-12-18T01:04:52.518Z,34.00
2022-12-18T01:07:19.033Z,33.50
2022-12-18T01:09:45.459Z,33.00
2022-12-18T01:12:11.954Z,34.63
2022-12-18T01:14:39.102Z,28.23
2022-12-18T01:17:05.591Z,29.40
2022-12-18T01:19:32.053Z,27.17
2022-12-18T01:21:58.624Z,31.83
2022-12-18T01:24:25.086Z,32.73
2022-12-18T01:26:51.497Z,32.03
2022-12-18T01:29:17.896Z,33.17
2022-12-18T01:31:44.403Z,22.87
2022-12-18T01:34:11.319Z,31.67
2022-12-18T01:36:38.737Z,27.57
2022-12-18T01:39:06.464Z,28.77
2022-12-18T01:41:52.414Z,31.33
2022-12-18T01:44:37.419Z,31.33
2022-12-18T01:47:03.903Z,28.07
2022-12-18T01:49:30.619Z,33.63
2022-12-18T01:51:56.975Z,28.93
2022-12-18T01:54:23.355Z,25.63
2022-12-18T01:56:49.732Z,33.93
2022-12-18T01:59:16.333Z,33.07
2022-12-18T02:01:42.832Z,38.23
2022-12-18T02:04:25.038Z,33.47
2022-12-18T02:06:56.591Z,25.43
2022-12-18T02:09:26.594Z,30.40
2022-12-18T02:12:28.243Z,32.67
2022-12-18T02:15:10.659Z,34.22
2022-12-18T02:17:57.345Z,36.93
2022-12-18T02:20:33.060Z,35.53
2022-12-18T02:23:07.055Z,32.73
2022-12-18T02:25:33.491Z,33.43
2022-12-18T02:28:01.259Z,41.20
2022-12-18T02:30:30.329Z,35.00
2022-12-18T02:32:56.944Z,29.10
2022-12-18T02:35:25.672Z,27.70
2022-12-18T02:37:55.572Z,31.63
2022-12-18T02:40:23.297Z,35.90
2022-12-18T02:42:50.047Z,38.30
2022-12-18T02:45:19.309Z,24.23
2022-12-18T02:47:48.250Z,43.73
2022-12-18T02:50:28.991Z,44.53
2022-12-18T02:53:15.669Z,39.43
2022-12-18T02:55:53.026Z,39.43
2022-12-18T02:58:28.453Z,43.53
2022-12-18T03:00:59.959Z,42.60
2022-12-18T03:03:31.282Z,34.00
2022-12-18T03:06:01.135Z,34.92
2022-12-18T03:08:32.565Z,38.67
2022-12-18T03:11:00.612Z,48.80
2022-12-18T03:13:38.399Z,38.00
2022-12-18T03:16:07.296Z,35.23
2022-12-18T03:18:36.840Z,39.93
2022-12-18T03:21:05.829Z,39.97
2022-12-18T03:23:35.646Z,43.50
2022-12-18T03:26:07.314Z,38.20
2022-12-18T03:28:37.565Z,46.50
2022-12-18T03:31:05.980Z,31.60
2022-12-18T03:33:41.734Z,43.83
2022-12-18T03:36:08.471Z,51.40
2022-12-18T03:38:34.924Z,40.20
2022-12-18T03:41:10.426Z,44.63
2022-12-18T03:43:55.225Z,40.37
2022-12-18T03:46:27.720Z,44.50
2022-12-18T03:48:59.894Z,39.77
2022-12-18T03:51:49.354Z,39.03
2022-12-18T03:54:16.117Z,40.70
2022-12-18T03:56:44.775Z,41.10
2022-12-18T03:59:13.428Z,46.43
2022-12-18T04:01:41.982Z,33.37
2022-12-18T04:04:09.472Z,44.27
2022-12-18T04:06:36.741Z,39.00
2022-12-18T04:09:05.828Z,45.70
2022-12-18T04:11:32.314Z,41.33
2022-12-18T04:13:59.107Z,43.13
2022-12-18T04:16:26.156Z,47.23
2022-12-18T04:18:52.637Z,41.83
2022-12-18T04:21:22.149Z,42.27
2022-12-18T04:23:48.669Z,43.37
2022-12-18T04:26:15.343Z,39.63
2022-12-18T04:28:41.788Z,34.57
2022-12-18T04:31:08.345Z,41.90
2022-12-18T04:33:34.947Z,36.53
2022-12-18T04:36:01.326Z,36.33
2022-12-18T04:38:27.761Z,35.40
2022-12-18T04:40:54.205Z,36.70
2022-12-18T04:43:20.762Z,37.13
2022-12-18T04:45:47.211Z,32.30
2022-12-18T04:48:13.729Z,37.20
2022-12-18T04:50:40.095Z,40.33
2022-12-18T04:53:07.313Z,31.83
2022-12-18T04:55:33.709Z,32.90
2022-12-18T04:58:00.118Z,46.27
2022-12-18T05:00:26.595Z,33.80
2022-12-18T05:02:53.472Z,40.33
2022-12-18T05:05:19.953Z,44.00
2022-12-18T05:07:46.341Z,35.73
2022-12-18T05:10:12.762Z,34.97
2022-12-18T05:12:59.562Z,38.07
2022-12-18T05:15:28.454Z,40.00
2022-12-18T05:17:55.254Z,31.23
2022-12-18T05:20:21.665Z,32.97
2022-12-18T05:22:48.056Z,31.93
2022-12-18T05:25:14.490Z,39.03
2022-12-18T05:27:40.861Z,32.57
2022-12-18T05:30:07.616Z,28.00
2022-12-18T05:32:34.031Z,32.93
2022-12-18T05:35:00.502Z,29.50
2022-12-18T05:37:28.641Z,36.50
2022-12-18T05:39:55.063Z,33.93
2022-12-18T05:42:21.499Z,40.57
2022-12-18T05:44:47.933Z,28.90
2022-12-18T05:47:14.344Z,31.60
2022-12-18T05:49:40.736Z,33.60
2022-12-18T05:52:07.172Z,31.90
2022-12-18T05:54:33.580Z,34.57
2022-12-18T05:56:59.985Z,35.00
2022-12-18T05:59:26.405Z,27.07
2022-12-18T06:01:53.139Z,39.10
2022-12-18T06:04:20.827Z,34.67
2022-12-18T06:06:47.215Z,33.00
2022-12-18T06:09:13.593Z,31.77
2022-12-18T06:11:40.645Z,30.83
2022-12-18T06:14:08.780Z,38.93
2022-12-18T06:16:35.284Z,35.03
2022-12-18T06:19:02.848Z,37.40
2022-12-18T06:21:29.793Z,35.57
2022-12-18T06:23:56.602Z,30.70
2022-12-18T06:26:27.794Z,35.77
2022-12-18T06:28:54.877Z,36.15
2022-12-18T06:31:22.815Z,33.83
2022-12-18T06:33:49.368Z,39.00
2022-12-18T06:36:16.925Z,28.27
2022-12-18T06:38:44.213Z,37.70
2022-12-18T06:41:11.666Z,35.43
2022-12-18T06:43:38.676Z,36.23
2022-12-18T06:46:06.047Z,36.03
2022-12-18T06:48:32.583Z,37.90
2022-12-18T06:50:59.210Z,39.77
2022-12-18T06:53:25.595Z,39.10
2022-12-18T06:55:52.149Z,36.53
2022-12-18T06:58:18.590Z,31.23
2022-12-18T07:00:45.090Z,34.87
2022-12-18T07:03:12.225Z,40.53
2022-12-18T07:05:41.976Z,33.47
2022-12-18T07:08:08.380Z,30.53
2022-12-18T07:10:35.106Z,31.57
2022-12-18T07:13:01.512Z,37.33
2022-12-18T07:15:27.993Z,42.83
2022-12-18T07:17:54.373Z,35.63
2022-12-18T07:20:20.780Z,39.13
2022-12-18T07:22:49.754Z,38.33
2022-12-18T07:25:18.428Z,41.40
2022-12-18T07:27:44.841Z,37.60
2022-12-18T07:30:12.070Z,37.97
2022-12-18T07:32:38.516Z,42.63
2022-12-18T07:35:05.166Z,28.43
2022-12-18T07:37:31.570Z,30.77
2022-12-18T07:39:58.010Z,39.07
2022-12-18T07:42:33.676Z,35.17
2022-12-18T07:45:00.762Z,35.73
2022-12-18T07:47:27.336Z,35.27
2022-12-18T07:49:54.428Z,33.97
2022-12-18T07:52:25.756Z,37.33
2022-12-18T07:57:48.435Z,32.50
2022-12-18T08:00:05.765Z,36.53
2022-12-18T08:02:33.020Z,33.40
2022-12-18T08:04:59.664Z,43.27
2022-12-18T08:07:26.094Z,33.57
2022-12-18T08:09:52.566Z,32.93
2022-12-18T08:12:18.928Z,38.53
2022-12-18T08:14:45.336Z,40.27
2022-12-18T08:17:11.761Z,33.17
2022-12-18T08:19:38.292Z,37.40
2022-12-18T08:22:04.714Z,36.17
2022-12-18T08:24:31.733Z,42.43
2022-12-18T08:27:27.964Z,31.60
2022-12-18T08:29:44.741Z,33.63
2022-12-18T08:32:13.419Z,41.03
2022-12-18T08:34:39.916Z,37.03
2022-12-18T08:37:06.777Z,32.47
2022-12-18T08:39:33.288Z,41.93
2022-12-18T08:42:18.072Z,36.17
2022-12-18T08:44:44.465Z,32.70
2022-12-18T08:47:10.905Z,36.40
2022-12-18T08:49:37.474Z,29.77
2022-12-18T08:52:05.200Z,34.73
2022-12-18T08:54:31.674Z,31.23
2022-12-18T08:56:58.091Z,39.27
2022-12-18T08:59:24.710Z,38.90
2022-12-18T09:01:51.354Z,35.13
2022-12-18T09:04:18.008Z,40.47
2022-12-18T09:06:44.534Z,35.40
2022-12-18T09:09:11.187Z,25.93
2022-12-18T09:11:37.869Z,39.00
2022-12-18T09:14:04.622Z,33.23
2022-12-18T09:16:33.012Z,32.83
2022-12-18T09:19:00.815Z,35.00
2022-12-18T09:21:28.785Z,38.03
2022-12-18T09:23:55.856Z,36.70
2022-12-18T09:26:23.120Z,36.77
2022-12-18T09:28:49.647Z,41.43
2022-12-18T09:31:16.829Z,30.53
2022-12-18T09:33:43.390Z,44.23
2022-12-18T09:36:10.760Z,31.53
2022-12-18T09:38:37.505Z,39.73
2022-12-18T09:41:06.561Z,28.93
2022-12-18T09:43:36.886Z,39.73
2022-12-18T09:46:05.686Z,35.87
2022-12-18T09:48:33.484Z,31.90
2022-12-18T09:51:03.665Z,37.07
2022-12-18T09:53:33.836Z,42.87
2022-12-18T09:56:01.632Z,40.23
2022-12-18T09:58:48.822Z,30.30
2022-12-18T10:01:21.838Z,36.33
2022-12-18T10:03:48.638Z,41.90
2022-12-18T10:06:21.779Z,37.23
2022-12-18T10:09:00.007Z,39.90
2022-12-18T10:11:26.380Z,44.70
2022-12-18T10:13:59.091Z,35.30
2022-12-18T10:16:43.245Z,30.53
2022-12-18T10:19:28.329Z,30.17
2022-12-18T10:22:03.345Z,33.30
2022-12-18T10:24:50.016Z,34.80
2022-12-18T10:27:17.853Z,42.17
2022-12-18T10:29:46.770Z,38.63
2022-12-18T10:32:18.089Z,35.13
2022-12-18T10:34:48.669Z,32.78
2022-12-18T10:37:19.711Z,36.37
2022-12-18T10:39:47.824Z,45.05
2022-12-18T10:42:19.720Z,41.57
2022-12-18T10:47:15.263Z,27.37
2022-12-18T10:49:48.122Z,38.73
2022-12-18T10:52:23.223Z,36.97
2022-12-18T10:54:50.961Z,34.77
2022-12-18T10:57:31.573Z,29.17
2022-12-18T10:59:59.102Z,36.33
2022-12-18T11:02:34.240Z,33.37
2022-12-18T11:05:01.390Z,37.87
2022-12-18T11:07:45.284Z,42.40
2022-12-18T11:10:17.094Z,39.20
2022-12-18T11:12:45.980Z,37.72
2022-12-18T11:15:21.320Z,41.57
2022-12-18T11:17:49.518Z,30.37
2022-12-18T11:20:32.073Z,30.50
2022-12-18T11:23:00.123Z,32.57
2022-12-18T11:25:33.108Z,33.27
2022-12-18T11:28:02.804Z,37.63
2022-12-18T11:30:31.314Z,43.50
2022-12-18T11:33:06.489Z,52.33
2022-12-18T11:35:32.870Z,47.07
2022-12-18T11:38:18.548Z,59.83
2022-12-18T11:40:56.798Z,47.83
2022-12-18T11:43:27.139Z,43.30
2022-12-18T11:45:54.583Z,43.43
2022-12-18T11:48:24.306Z,48.80
2022-12-18T11:50:54.884Z,38.50
2022-12-18T11:53:21.565Z,44.43
2022-12-18T11:55:49.098Z,48.20
2022-12-18T11:58:31.114Z,40.20
2022-12-18T12:01:11.895Z,36.83
2022-12-18T12:03:57.268Z,46.03
2022-12-18T12:06:33.814Z,32.40
2022-12-18T12:09:03.271Z,40.27
2022-12-18T12:11:48.328Z,45.23
2022-12-18T12:14:14.753Z,45.53
2022-12-18T12:16:41.205Z,35.63
2022-12-18T12:19:10.449Z,40.50
2022-12-18T12:21:53.819Z,43.03
2022-12-18T12:24:31.858Z,37.77
2022-12-18T12:27:07.778Z,37.80
2022-12-18T12:29:34.221Z,33.53
2022-12-18T12:32:03.613Z,75.67
2022-12-18T12:34:46.525Z,44.27
2022-12-18T12:37:20.387Z,32.53
2022-12-18T12:39:48.102Z,37.03
2022-12-18T12:42:54.953Z,38.87
2022-12-18T12:45:28.870Z,41.17
2022-12-18T12:47:55.648Z,50.77
2022-12-18T12:50:22.682Z,39.73
2022-12-18T12:52:56.708Z,51.03
2022-12-18T12:55:25.371Z,38.37
2022-12-18T12:58:03.393Z,34.30
2022-12-18T13:00:33.184Z,28.60
2022-12-18T13:03:18.898Z,40.10
2022-12-18T13:05:55.806Z,35.67
2022-12-18T13:08:35.046Z,33.40
2022-12-18T13:11:20.316Z,37.43
2022-12-18T13:13:52.704Z,38.97
2022-12-18T13:16:23.743Z,46.42
2022-12-18T13:18:55.336Z,33.50
2022-12-18T13:21:21.887Z,39.25
2022-12-18T13:23:50.535Z,47.73
2022-12-18T13:26:16.964Z,33.63
2022-12-18T13:28:49.375Z,36.47
2022-12-18T13:31:31.212Z,31.30
2022-12-18T13:34:26.092Z,31.90
2022-12-18T13:36:54.281Z,34.73
2022-12-18T13:39:30.058Z,31.73
2022-12-18T13:42:07.111Z,30.43
2022-12-18T13:44:40.553Z,57.50
2022-12-18T13:47:31.283Z,73.90
2022-12-18T13:49:58.162Z,54.73
2022-12-18T13:52:32.154Z,36.30
2022-12-18T13:55:00.346Z,42.97
2022-12-18T13:57:31.885Z,52.43
2022-12-18T13:59:59.207Z,33.33
2022-12-18T14:02:27.325Z,37.93
2022-12-18T14:04:54.409Z,31.63
2022-12-18T14:07:22.601Z,33.57
2022-12-18T14:10:06.480Z,34.53
2022-12-18T14:13:01.982Z,34.20
2022-12-18T14:15:29.889Z,34.43
2022-12-18T14:18:01.036Z,40.83
2022-12-18T14:20:29.294Z,47.87
2022-12-18T14:22:57.065Z,44.33
2022-12-18T14:25:25.831Z,33.23
2022-12-18T14:28:04.272Z,40.27
2022-12-18T14:30:32.151Z,46.57
2022-12-18T14:33:05.857Z,59.03
2022-12-18T14:35:38.692Z,49.77
2022-12-18T14:38:12.563Z,49.17
2022-12-18T14:40:43.045Z,43.30
2022-12-18T14:43:12.737Z,39.00
2022-12-18T14:45:43.410Z,28.73
2022-12-18T14:48:15.057Z,25.67
2022-12-18T14:50:45.268Z,33.97
2022-12-18T14:53:22.297Z,35.77
2022-12-18T14:55:49.204Z,45.47
2022-12-18T14:58:16.951Z,49.47
2022-12-18T15:00:43.490Z,42.43
2022-12-18T15:03:11.038Z,39.50
2022-12-18T15:05:37.528Z,60.43
2022-12-18T15:08:03.979Z,46.90
2022-12-18T15:10:31.781Z,34.53
2022-12-18T15:12:58.388Z,57.63
2022-12-18T15:15:33.901Z,51.40
2022-12-18T15:18:03.164Z,39.53
2022-12-18T15:20:32.567Z,42.53
2022-12-18T15:22:59.209Z,75.70
2022-12-18T15:25:32.879Z,39.30
2022-12-18T15:27:59.325Z,33.27
2022-12-18T15:30:26.559Z,32.73
2022-12-18T15:32:53.872Z,33.30
2022-12-18T15:35:24.474Z,44.77
2022-12-18T15:37:51.995Z,31.00
2022-12-18T15:40:20.306Z,24.30
2022-12-18T15:43:05.711Z,23.63
2022-12-18T15:45:32.324Z,31.00
2022-12-18T15:47:58.788Z,29.63
2022-12-18T15:50:25.572Z,26.27
2022-12-18T15:52:53.191Z,28.77
2022-12-18T15:55:39.670Z,28.57
2022-12-18T15:58:08.075Z,28.83
2022-12-18T16:00:36.319Z,34.00
2022-12-18T16:03:03.099Z,39.40
2022-12-18T16:05:30.143Z,42.63
2022-12-18T16:07:56.570Z,24.27
2022-12-18T16:10:23.055Z,23.70
2022-12-18T16:12:49.645Z,24.13
2022-12-18T16:15:22.477Z,71.80
2022-12-18T16:17:50.902Z,35.00
2022-12-18T16:20:18.176Z,34.60
2022-12-18T16:22:48.042Z,38.10
2022-12-18T16:25:23.119Z,28.93
2022-12-18T16:27:49.769Z,76.57
2022-12-18T16:30:18.515Z,48.60
2022-12-18T16:32:44.992Z,36.13
2022-12-18T16:35:12.551Z,34.33
2022-12-18T16:37:39.544Z,36.93
2022-12-18T16:40:07.252Z,41.77
2022-12-18T16:42:33.689Z,45.60
2022-12-18T16:45:00.268Z,51.23
2022-12-18T16:47:26.724Z,50.97
2022-12-18T16:49:53.425Z,49.60
2022-12-18T16:52:20.368Z,161.97
2022-12-18T16:54:46.785Z,51.13
2022-12-18T16:57:16.410Z,34.30
2022-12-18T16:59:43.037Z,39.50
2022-12-18T17:02:25.968Z,41.40
2022-12-18T17:04:55.007Z,34.83
2022-12-18T17:07:21.444Z,24.80
2022-12-18T17:09:47.868Z,29.50
2022-12-18T17:12:14.337Z,25.00
2022-12-18T17:14:40.760Z,20.03
2022-12-18T17:17:20.451Z,36.47
2022-12-18T17:19:48.091Z,33.83
2022-12-18T17:22:14.589Z,39.10
2022-12-18T17:24:41.035Z,89.53
2022-12-18T17:27:08.965Z,38.63
2022-12-18T17:29:35.467Z,40.70
2022-12-18T17:32:02.314Z,46.97
2022-12-18T17:34:28.766Z,42.90
2022-12-18T17:36:56.376Z,85.47
2022-12-18T17:39:22.867Z,59.70
2022-12-18T17:41:49.705Z,89.33
2022-12-18T17:44:17.063Z,99.07
2022-12-18T17:46:44.035Z,46.27
2022-12-18T17:49:14.243Z,37.83
2022-12-18T17:51:43.035Z,36.70
2022-12-18T17:54:09.931Z,33.93
2022-12-18T17:56:36.535Z,32.17
2022-12-18T17:59:03.114Z,31.97
2022-12-18T18:01:29.700Z,48.90
2022-12-18T18:03:56.403Z,36.47
2022-12-18T18:06:23.833Z,46.47
2022-12-18T18:08:50.785Z,36.17
2022-12-18T18:11:38.490Z,45.73
2022-12-18T18:14:07.041Z,39.03
2022-12-18T18:16:44.140Z,49.90
2022-12-18T18:19:15.371Z,34.67
2022-12-18T18:21:43.274Z,40.85
2022-12-18T18:24:11.590Z,47.40
2022-12-18T18:26:38.566Z,61.20
2022-12-18T18:29:06.432Z,40.80
2022-12-18T18:31:35.307Z,50.40
2022-12-18T18:34:07.528Z,42.23
2022-12-18T18:36:34.585Z,51.03
2022-12-18T18:39:02.068Z,56.60
2022-12-18T18:41:30.051Z,59.07
2022-12-18T18:43:57.456Z,56.50
2022-12-18T18:46:24.654Z,50.87
2022-12-18T18:48:51.449Z,55.27
2022-12-18T18:51:21.250Z,57.33
2022-12-18T18:53:48.796Z,50.17
2022-12-18T18:59:02.889Z,74.07
2022-12-18T19:01:29.489Z,92.27
2022-12-18T19:03:56.333Z,65.63
2022-12-18T19:06:24.114Z,55.93
2022-12-18T19:08:51.425Z,48.70
2022-12-18T19:11:36.843Z,57.40
2022-12-18T19:14:04.731Z,52.17
2022-12-18T19:16:32.087Z,54.10
2022-12-18T19:19:01.824Z,41.87
2022-12-18T19:21:28.971Z,44.93
2022-12-18T19:23:58.063Z,34.93
2022-12-18T19:26:27.944Z,44.90
2022-12-18T19:29:00.023Z,43.50
2022-12-18T19:31:31.825Z,38.75
2022-12-18T19:34:01.900Z,38.23
2022-12-18T19:36:29.653Z,43.40
2022-12-18T19:38:58.382Z,46.00
2022-12-18T19:41:25.665Z,39.07
2022-12-18T19:43:54.744Z,31.97
2022-12-18T19:46:22.230Z,37.17
2022-12-18T19:48:48.889Z,44.53
2022-12-18T19:51:16.830Z,34.90
2022-12-18T19:53:44.581Z,43.17
2022-12-18T19:56:12.463Z,113.27
2022-12-18T19:58:39.401Z,37.23
2022-12-18T20:01:06.206Z,56.93
2022-12-18T20:03:34.776Z,33.97
2022-12-18T20:06:08.486Z,34.80
2022-12-18T20:08:39.387Z,30.17
2022-12-18T20:11:06.087Z,36.77
2022-12-18T20:13:32.457Z,32.50
2022-12-18T20:15:59.329Z,35.87
2022-12-18T20:18:26.152Z,35.57
2022-12-18T20:20:53.148Z,37.63
2022-12-18T20:23:22.795Z,35.57
2022-12-18T20:25:49.562Z,109.57
2022-12-18T20:28:16.927Z,62.53
2022-12-18T20:30:43.478Z,78.33
2022-12-18T20:33:09.851Z,56.53
2022-12-18T20:35:36.229Z,360.20
2022-12-18T20:38:03.532Z,622.00
2022-12-18T20:40:31.016Z,216.20
2022-12-18T20:42:57.480Z,125.50
2022-12-18T20:45:23.995Z,91.77
2022-12-18T20:47:50.466Z,48.13
2022-12-18T20:50:16.955Z,34.93
2022-12-18T20:52:43.418Z,262.07
2022-12-18T20:55:10.089Z,214.97
2022-12-18T20:57:37.505Z,107.60
2022-12-18T21:00:05.286Z,80.83
2022-12-18T21:02:31.903Z,36.37
2022-12-18T21:04:58.557Z,44.73
2022-12-18T21:07:25.020Z,40.00
2022-12-18T21:09:51.471Z,36.10
2022-12-18T21:12:48.199Z,39.60
2022-12-18T21:15:28.715Z,39.93
2022-12-18T21:17:55.517Z,61.03
2022-12-18T21:20:21.903Z,40.50
2022-12-18T21:22:49.446Z,29.60
2022-12-18T21:25:17.487Z,38.90
2022-12-18T21:27:44.003Z,36.70
2022-12-18T21:30:10.718Z,36.90
2022-12-18T21:32:37.163Z,36.57
2022-12-18T21:35:04.117Z,31.53
2022-12-18T21:37:30.560Z,25.93
2022-12-18T21:39:56.955Z,33.60
2022-12-18T21:42:42.259Z,34.13
2022-12-18T21:45:08.824Z,41.30
2022-12-18T21:47:35.259Z,38.53
2022-12-18T21:50:01.695Z,34.83
2022-12-18T21:52:32.660Z,44.90
2022-12-18T21:55:08.560Z,39.55
2022-12-18T21:57:36.810Z,30.57
2022-12-18T22:00:03.810Z,36.57
2022-12-18T22:02:30.715Z,39.17
2022-12-18T22:04:57.261Z,43.20
2022-12-18T22:07:24.083Z,42.40
2022-12-18T22:09:50.472Z,39.33
2022-12-18T22:12:35.354Z,36.53
2022-12-18T22:15:03.072Z,40.67
2022-12-18T22:17:29.501Z,41.10
2022-12-18T22:19:57.095Z,49.63
2022-12-18T22:22:23.494Z,59.50
2022-12-18T22:24:49.898Z,71.07
2022-12-18T22:27:16.264Z,76.10
2022-12-18T22:30:01.390Z,69.53
2022-12-18T22:32:31.244Z,66.33
2022-12-18T22:35:04.587Z,66.73
2022-12-18T22:37:32.709Z,46.10
2022-12-18T22:39:59.176Z,55.13
2022-12-18T22:42:29.337Z,40.00
2022-12-18T22:44:55.738Z,49.23
2022-12-18T22:47:26.529Z,44.70
2022-12-18T22:49:55.777Z,53.37
2022-12-18T22:52:22.167Z,47.43
2022-12-18T22:54:51.110Z,43.90
2022-12-18T22:57:19.594Z,54.80
2022-12-18T22:59:45.977Z,47.60
2022-12-18T23:02:12.686Z,43.37
2022-12-18T23:04:39.841Z,49.73
2022-12-18T23:07:07.531Z,48.97
2022-12-18T23:09:34.441Z,46.57
2022-12-18T23:12:01.212Z,51.10
2022-12-18T23:14:28.052Z,49.20
2022-12-18T23:16:54.496Z,38.13
2022-12-18T23:19:21.427Z,80.60
2022-12-18T23:21:50.205Z,46.07
2022-12-18T23:24:16.682Z,42.70
2022-12-18T23:26:43.279Z,35.33
2022-12-18T23:29:09.735Z,50.93
2022-12-18T23:31:37.202Z,48.67
2022-12-18T23:34:04.039Z,45.43
2022-12-18T23:36:30.826Z,41.00
2022-12-18T23:39:03.529Z,53.40
2022-12-18T23:41:31.464Z,44.10
2022-12-18T23:43:58.196Z,44.80
2022-12-18T23:46:26.365Z,46.90
2022-12-18T23:48:53.177Z,52.53
2022-12-18T23:51:20.505Z,46.30
2022-12-18T23:53:46.891Z,50.13
2022-12-18T23:56:14.673Z,47.33
2022-12-18T23:58:41.707Z,40.13
